sensor_id;sensor_type;location;lat;lon;timestamp;temperature;humidity
3758;DHT22;1894;51.038;13.692;2023-11-21T00:00:00;9.30;99.90
3758;DHT22;1894;51.038;13.692;2023-11-21T00:02:27;9.30;99.90
3758;DHT22;1894;51.038;13.692;2023-11-21T00:04:55;9.30;99.90
3758;DHT22;1894;51.038;13.692;2023-11-21T00:07:22;9.30;99.90
3758;DHT22;1894;51.038;13.692;2023-11-21T00:09:49;9.30;99.90
3758;DHT22;1894;51.038;13.692;2023-11-21T00:12:16;9.30;99.90
3758;DHT22;1894;51.038;13.692;2023-11-21T00:14:44;9.30;99.90
3758;DHT22;1894;51.038;13.692;2023-11-21T00:17:12;9.30;99.90
3758;DHT22;1894;51.038;13.692;2023-11-21T00:19:39;9.30;99.90
3758;DHT22;1894;51.038;13.692;2023-11-21T00:22:06;9.30;99.90
3758;DHT22;1894;51.038;13.692;2023-11-21T00:24:34;9.30;99.90
3758;DHT22;1894;51.038;13.692;2023-11-21T00:27:01;9.30;99.90
3758;DHT22;1894;51.038;13.692;2023-11-21T00:29:29;9.30;99.90
3758;DHT22;1894;51.038;13.692;2023-11-21T00:31:56;9.40;99.90
3758;DHT22;1894;51.038;13.692;2023-11-21T00:34:24;9.30;99.90
3758;DHT22;1894;51.038;13.692;2023-11-21T00:36:51;9.30;99.90
3758;DHT22;1894;51.038;13.692;2023-11-21T00:39:20;9.30;99.90
3758;DHT22;1894;51.038;13.692;2023-11-21T00:41:47;9.30;99.90
3758;DHT22;1894;51.038;13.692;2023-11-21T00:44:15;9.20;99.90
3758;DHT22;1894;51.038;13.692;2023-11-21T00:46:42;9.20;99.90
3758;DHT22;1894;51.038;13.692;2023-11-21T00:49:10;9.20;99.90
3758;DHT22;1894;51.038;13.692;2023-11-21T00:51:37;9.30;99.90
3758;DHT22;1894;51.038;13.692;2023-11-21T00:54:05;9.30;99.90
3758;DHT22;1894;51.038;13.692;2023-11-21T00:56:33;9.30;99.90
3758;DHT22;1894;51.038;13.692;2023-11-21T00:59:00;9.30;99.90
3758;DHT22;1894;51.038;13.692;2023-11-21T01:01:28;9.20;99.90
3758;DHT22;1894;51.038;13.692;2023-11-21T01:03:55;9.30;99.90
3758;DHT22;1894;51.038;13.692;2023-11-21T01:06:22;9.20;99.90
3758;DHT22;1894;51.038;13.692;2023-11-21T01:08:49;9.20;99.90
3758;DHT22;1894;51.038;13.692;2023-11-21T01:11:17;9.20;99.90
3758;DHT22;1894;51.038;13.692;2023-11-21T01:13:44;9.20;99.90
3758;DHT22;1894;51.038;13.692;2023-11-21T01:16:11;9.20;99.90
3758;DHT22;1894;51.038;13.692;2023-11-21T01:18:39;9.30;99.90
3758;DHT22;1894;51.038;13.692;2023-11-21T01:21:07;9.30;99.90
3758;DHT22;1894;51.038;13.692;2023-11-21T01:23:36;9.20;99.90
3758;DHT22;1894;51.038;13.692;2023-11-21T01:26:03;9.30;99.90
3758;DHT22;1894;51.038;13.692;2023-11-21T01:28:30;9.20;99.90
3758;DHT22;1894;51.038;13.692;2023-11-21T01:30:57;9.20;99.90
3758;DHT22;1894;51.038;13.692;2023-11-21T01:33:25;9.30;99.90
3758;DHT22;1894;51.038;13.692;2023-11-21T01:35:52;9.20;99.90
3758;DHT22;1894;51.038;13.692;2023-11-21T01:38:22;9.10;99.90
3758;DHT22;1894;51.038;13.692;2023-11-21T01:40:49;9.10;99.90
3758;DHT22;1894;51.038;13.692;2023-11-21T01:43:17;9.00;99.90
3758;DHT22;1894;51.038;13.692;2023-11-21T01:45:45;9.00;99.90
3758;DHT22;1894;51.038;13.692;2023-11-21T01:48:13;9.10;99.90
3758;DHT22;1894;51.038;13.692;2023-11-21T01:50:41;9.10;99.90
3758;DHT22;1894;51.038;13.692;2023-11-21T01:53:10;9.10;99.90
3758;DHT22;1894;51.038;13.692;2023-11-21T01:55:41;9.20;99.90
3758;DHT22;1894;51.038;13.692;2023-11-21T01:58:10;9.10;99.90
3758;DHT22;1894;51.038;13.692;2023-11-21T02:00:39;9.20;99.90
3758;DHT22;1894;51.038;13.692;2023-11-21T02:03:06;9.20;99.90
3758;DHT22;1894;51.038;13.692;2023-11-21T02:05:34;9.10;99.90
3758;DHT22;1894;51.038;13.692;2023-11-21T02:08:01;9.10;99.90
3758;DHT22;1894;51.038;13.692;2023-11-21T02:10:30;9.10;99.90
3758;DHT22;1894;51.038;13.692;2023-11-21T02:12:59;9.10;99.90
3758;DHT22;1894;51.038;13.692;2023-11-21T02:15:29;9.10;99.90
3758;DHT22;1894;51.038;13.692;2023-11-21T02:17:56;9.00;99.90
3758;DHT22;1894;51.038;13.692;2023-11-21T02:20:26;8.90;99.90
3758;DHT22;1894;51.038;13.692;2023-11-21T02:22:57;8.90;99.90
3758;DHT22;1894;51.038;13.692;2023-11-21T02:25:29;8.90;99.90
3758;DHT22;1894;51.038;13.692;2023-11-21T02:27:59;9.00;99.90
3758;DHT22;1894;51.038;13.692;2023-11-21T02:30:28;9.00;99.90
3758;DHT22;1894;51.038;13.692;2023-11-21T02:32:55;9.00;99.90
3758;DHT22;1894;51.038;13.692;2023-11-21T02:35:25;9.00;99.90
3758;DHT22;1894;51.038;13.692;2023-11-21T02:37:53;9.00;99.90
3758;DHT22;1894;51.038;13.692;2023-11-21T02:40:21;9.00;99.90
3758;DHT22;1894;51.038;13.692;2023-11-21T02:42:48;9.00;99.90
3758;DHT22;1894;51.038;13.692;2023-11-21T02:45:19;8.90;99.90
3758;DHT22;1894;51.038;13.692;2023-11-21T02:47:51;8.80;99.90
3758;DHT22;1894;51.038;13.692;2023-11-21T02:50:20;8.70;99.90
3758;DHT22;1894;51.038;13.692;2023-11-21T02:52:50;8.60;99.90
3758;DHT22;1894;51.038;13.692;2023-11-21T02:55:19;8.50;99.90
3758;DHT22;1894;51.038;13.692;2023-11-21T02:57:47;8.50;99.90
3758;DHT22;1894;51.038;13.692;2023-11-21T03:00:14;8.40;99.90
3758;DHT22;1894;51.038;13.692;2023-11-21T03:02:43;8.30;99.90
3758;DHT22;1894;51.038;13.692;2023-11-21T03:05:10;8.40;99.90
3758;DHT22;1894;51.038;13.692;2023-11-21T03:07:39;8.40;99.90
3758;DHT22;1894;51.038;13.692;2023-11-21T03:10:08;8.40;99.90
3758;DHT22;1894;51.038;13.692;2023-11-21T03:12:41;8.30;99.90
3758;DHT22;1894;51.038;13.692;2023-11-21T03:15:09;8.30;99.90
3758;DHT22;1894;51.038;13.692;2023-11-21T03:17:37;8.30;99.90
3758;DHT22;1894;51.038;13.692;2023-11-21T03:20:05;8.30;99.90
3758;DHT22;1894;51.038;13.692;2023-11-21T03:22:32;8.30;99.90
3758;DHT22;1894;51.038;13.692;2023-11-21T03:25:01;8.30;99.90
3758;DHT22;1894;51.038;13.692;2023-11-21T03:27:28;8.40;99.90
3758;DHT22;1894;51.038;13.692;2023-11-21T03:29:55;8.50;99.90
3758;DHT22;1894;51.038;13.692;2023-11-21T03:32:22;8.50;99.90
3758;DHT22;1894;51.038;13.692;2023-11-21T03:34:57;8.50;99.90
3758;DHT22;1894;51.038;13.692;2023-11-21T03:37:26;8.50;99.90
3758;DHT22;1894;51.038;13.692;2023-11-21T03:39:56;8.50;99.90
3758;DHT22;1894;51.038;13.692;2023-11-21T03:42:24;8.40;99.90
3758;DHT22;1894;51.038;13.692;2023-11-21T03:44:54;8.40;99.90
3758;DHT22;1894;51.038;13.692;2023-11-21T03:47:22;8.40;99.90
3758;DHT22;1894;51.038;13.692;2023-11-21T03:49:49;8.30;99.90
3758;DHT22;1894;51.038;13.692;2023-11-21T03:52:17;8.30;99.90
3758;DHT22;1894;51.038;13.692;2023-11-21T03:54:44;8.40;99.90
3758;DHT22;1894;51.038;13.692;2023-11-21T03:57:12;8.40;99.90
3758;DHT22;1894;51.038;13.692;2023-11-21T03:59:43;8.30;99.90
3758;DHT22;1894;51.038;13.692;2023-11-21T04:02:10;8.30;99.90
3758;DHT22;1894;51.038;13.692;2023-11-21T04:04:37;8.30;99.90
3758;DHT22;1894;51.038;13.692;2023-11-21T04:07:05;8.30;99.90
3758;DHT22;1894;51.038;13.692;2023-11-21T04:09:32;8.30;99.90
3758;DHT22;1894;51.038;13.692;2023-11-21T04:12:00;8.30;99.90
3758;DHT22;1894;51.038;13.692;2023-11-21T04:14:27;8.30;99.90
3758;DHT22;1894;51.038;13.692;2023-11-21T04:16:54;8.30;99.90
3758;DHT22;1894;51.038;13.692;2023-11-21T04:19:21;8.30;99.90
3758;DHT22;1894;51.038;13.692;2023-11-21T04:21:49;8.30;99.90
3758;DHT22;1894;51.038;13.692;2023-11-21T04:24:16;8.30;99.90
3758;DHT22;1894;51.038;13.692;2023-11-21T04:26:44;8.30;99.90
3758;DHT22;1894;51.038;13.692;2023-11-21T04:29:11;8.40;99.90
3758;DHT22;1894;51.038;13.692;2023-11-21T04:31:38;8.30;99.90
3758;DHT22;1894;51.038;13.692;2023-11-21T04:34:06;8.30;99.90
3758;DHT22;1894;51.038;13.692;2023-11-21T04:36:33;8.30;99.90
3758;DHT22;1894;51.038;13.692;2023-11-21T04:39:01;8.30;99.90
3758;DHT22;1894;51.038;13.692;2023-11-21T04:41:28;8.30;99.90
3758;DHT22;1894;51.038;13.692;2023-11-21T04:43:58;8.30;99.90
3758;DHT22;1894;51.038;13.692;2023-11-21T04:46:27;8.20;99.90
3758;DHT22;1894;51.038;13.692;2023-11-21T04:48:55;8.30;99.90
3758;DHT22;1894;51.038;13.692;2023-11-21T04:51:23;8.30;99.90
3758;DHT22;1894;51.038;13.692;2023-11-21T04:53:50;8.40;99.90
3758;DHT22;1894;51.038;13.692;2023-11-21T04:56:18;8.40;99.90
3758;DHT22;1894;51.038;13.692;2023-11-21T04:58:45;8.50;99.90
3758;DHT22;1894;51.038;13.692;2023-11-21T05:01:12;8.50;99.90
3758;DHT22;1894;51.038;13.692;2023-11-21T05:03:40;8.60;99.90
3758;DHT22;1894;51.038;13.692;2023-11-21T05:06:11;8.60;99.90
3758;DHT22;1894;51.038;13.692;2023-11-21T05:08:38;8.60;99.90
3758;DHT22;1894;51.038;13.692;2023-11-21T05:11:05;8.70;99.90
3758;DHT22;1894;51.038;13.692;2023-11-21T05:13:34;8.60;99.90
3758;DHT22;1894;51.038;13.692;2023-11-21T05:16:02;8.70;99.90
3758;DHT22;1894;51.038;13.692;2023-11-21T05:18:31;8.70;99.90
3758;DHT22;1894;51.038;13.692;2023-11-21T05:20:58;8.80;99.90
3758;DHT22;1894;51.038;13.692;2023-11-21T05:23:25;8.80;99.90
3758;DHT22;1894;51.038;13.692;2023-11-21T05:25:52;8.80;99.90
3758;DHT22;1894;51.038;13.692;2023-11-21T05:28:20;8.80;99.90
3758;DHT22;1894;51.038;13.692;2023-11-21T05:30:47;8.80;99.90
3758;DHT22;1894;51.038;13.692;2023-11-21T05:33:14;8.80;99.90
3758;DHT22;1894;51.038;13.692;2023-11-21T05:35:41;8.80;99.90
3758;DHT22;1894;51.038;13.692;2023-11-21T05:38:08;8.80;99.90
3758;DHT22;1894;51.038;13.692;2023-11-21T05:40:35;8.80;99.90
3758;DHT22;1894;51.038;13.692;2023-11-21T05:43:04;8.70;99.90
3758;DHT22;1894;51.038;13.692;2023-11-21T05:45:32;8.80;99.90
3758;DHT22;1894;51.038;13.692;2023-11-21T05:47:59;8.80;99.90
3758;DHT22;1894;51.038;13.692;2023-11-21T05:50:26;8.70;99.90
3758;DHT22;1894;51.038;13.692;2023-11-21T05:52:54;8.70;99.90
3758;DHT22;1894;51.038;13.692;2023-11-21T05:55:22;8.80;99.90
3758;DHT22;1894;51.038;13.692;2023-11-21T05:57:53;8.80;99.90
3758;DHT22;1894;51.038;13.692;2023-11-21T06:00:20;8.80;99.90
3758;DHT22;1894;51.038;13.692;2023-11-21T06:02:53;8.70;99.90
3758;DHT22;1894;51.038;13.692;2023-11-21T06:05:23;8.60;99.90
3758;DHT22;1894;51.038;13.692;2023-11-21T06:07:54;8.50;99.90
3758;DHT22;1894;51.038;13.692;2023-11-21T06:10:22;8.40;99.90
3758;DHT22;1894;51.038;13.692;2023-11-21T06:12:52;8.30;99.90
3758;DHT22;1894;51.038;13.692;2023-11-21T06:15:20;8.30;99.90
3758;DHT22;1894;51.038;13.692;2023-11-21T06:17:49;8.40;99.90
3758;DHT22;1894;51.038;13.692;2023-11-21T06:20:20;8.40;99.90
3758;DHT22;1894;51.038;13.692;2023-11-21T06:22:50;8.50;99.90
3758;DHT22;1894;51.038;13.692;2023-11-21T06:25:18;8.50;99.90
3758;DHT22;1894;51.038;13.692;2023-11-21T06:27:47;8.60;99.90
3758;DHT22;1894;51.038;13.692;2023-11-21T06:30:15;8.60;99.90
3758;DHT22;1894;51.038;13.692;2023-11-21T06:32:43;8.50;99.90
3758;DHT22;1894;51.038;13.692;2023-11-21T06:35:14;8.60;99.90
3758;DHT22;1894;51.038;13.692;2023-11-21T06:37:44;8.60;99.90
3758;DHT22;1894;51.038;13.692;2023-11-21T06:40:17;8.60;99.90
3758;DHT22;1894;51.038;13.692;2023-11-21T06:42:46;8.60;99.90
3758;DHT22;1894;51.038;13.692;2023-11-21T06:45:14;8.50;99.90
3758;DHT22;1894;51.038;13.692;2023-11-21T06:47:42;8.50;99.90
3758;DHT22;1894;51.038;13.692;2023-11-21T06:50:10;8.50;99.90
3758;DHT22;1894;51.038;13.692;2023-11-21T06:52:37;8.60;99.90
3758;DHT22;1894;51.038;13.692;2023-11-21T06:55:06;8.60;99.90
3758;DHT22;1894;51.038;13.692;2023-11-21T06:57:36;8.50;99.90
3758;DHT22;1894;51.038;13.692;2023-11-21T07:00:04;8.60;99.90
3758;DHT22;1894;51.038;13.692;2023-11-21T07:02:33;8.60;99.90
3758;DHT22;1894;51.038;13.692;2023-11-21T07:05:01;8.60;99.90
3758;DHT22;1894;51.038;13.692;2023-11-21T07:07:28;8.70;99.90
3758;DHT22;1894;51.038;13.692;2023-11-21T07:09:57;8.70;99.90
3758;DHT22;1894;51.038;13.692;2023-11-21T07:12:24;8.80;99.90
3758;DHT22;1894;51.038;13.692;2023-11-21T07:14:52;8.80;99.90
3758;DHT22;1894;51.038;13.692;2023-11-21T07:17:20;8.90;99.90
3758;DHT22;1894;51.038;13.692;2023-11-21T07:19:50;8.90;99.90
3758;DHT22;1894;51.038;13.692;2023-11-21T07:22:17;8.70;99.90
3758;DHT22;1894;51.038;13.692;2023-11-21T07:24:51;8.80;99.90
3758;DHT22;1894;51.038;13.692;2023-11-21T07:27:19;8.90;99.90
3758;DHT22;1894;51.038;13.692;2023-11-21T07:29:46;8.90;99.90
3758;DHT22;1894;51.038;13.692;2023-11-21T07:32:15;8.90;99.90
3758;DHT22;1894;51.038;13.692;2023-11-21T07:34:43;9.00;99.90
3758;DHT22;1894;51.038;13.692;2023-11-21T07:37:10;9.00;99.90
3758;DHT22;1894;51.038;13.692;2023-11-21T07:39:37;9.10;99.90
3758;DHT22;1894;51.038;13.692;2023-11-21T07:42:08;9.10;99.90
3758;DHT22;1894;51.038;13.692;2023-11-21T07:44:36;9.10;99.90
3758;DHT22;1894;51.038;13.692;2023-11-21T07:47:03;9.10;99.90
3758;DHT22;1894;51.038;13.692;2023-11-21T07:49:31;9.10;99.90
3758;DHT22;1894;51.038;13.692;2023-11-21T07:51:58;9.20;99.90
3758;DHT22;1894;51.038;13.692;2023-11-21T07:54:25;9.20;99.90
3758;DHT22;1894;51.038;13.692;2023-11-21T07:56:53;9.20;99.90
3758;DHT22;1894;51.038;13.692;2023-11-21T07:59:20;9.10;99.90
3758;DHT22;1894;51.038;13.692;2023-11-21T08:01:47;9.10;99.90
3758;DHT22;1894;51.038;13.692;2023-11-21T08:04:14;9.00;99.90
3758;DHT22;1894;51.038;13.692;2023-11-21T08:06:42;9.10;99.90
3758;DHT22;1894;51.038;13.692;2023-11-21T08:09:09;9.20;99.90
3758;DHT22;1894;51.038;13.692;2023-11-21T08:11:36;9.10;99.90
3758;DHT22;1894;51.038;13.692;2023-11-21T08:14:05;9.10;99.90
3758;DHT22;1894;51.038;13.692;2023-11-21T08:16:33;9.10;99.90
3758;DHT22;1894;51.038;13.692;2023-11-21T08:19:00;9.20;99.90
3758;DHT22;1894;51.038;13.692;2023-11-21T08:21:27;9.20;99.90
3758;DHT22;1894;51.038;13.692;2023-11-21T08:23:56;9.10;99.90
3758;DHT22;1894;51.038;13.692;2023-11-21T08:26:23;9.20;99.90
3758;DHT22;1894;51.038;13.692;2023-11-21T08:28:50;9.10;99.90
3758;DHT22;1894;51.038;13.692;2023-11-21T08:31:26;9.00;99.90
3758;DHT22;1894;51.038;13.692;2023-11-21T08:33:53;9.20;99.90
3758;DHT22;1894;51.038;13.692;2023-11-21T08:36:25;9.40;99.90
3758;DHT22;1894;51.038;13.692;2023-11-21T08:38:52;9.30;99.90
3758;DHT22;1894;51.038;13.692;2023-11-21T08:41:19;9.40;99.90
3758;DHT22;1894;51.038;13.692;2023-11-21T08:43:50;9.40;99.90
3758;DHT22;1894;51.038;13.692;2023-11-21T08:46:18;9.30;99.90
3758;DHT22;1894;51.038;13.692;2023-11-21T08:48:46;9.30;99.90
3758;DHT22;1894;51.038;13.692;2023-11-21T08:51:14;9.30;99.90
3758;DHT22;1894;51.038;13.692;2023-11-21T08:53:41;9.20;99.90
3758;DHT22;1894;51.038;13.692;2023-11-21T08:56:12;9.30;99.90
3758;DHT22;1894;51.038;13.692;2023-11-21T08:58:41;9.40;99.90
3758;DHT22;1894;51.038;13.692;2023-11-21T09:01:08;9.30;99.90
3758;DHT22;1894;51.038;13.692;2023-11-21T09:03:36;9.30;99.90
3758;DHT22;1894;51.038;13.692;2023-11-21T09:06:03;9.10;99.90
3758;DHT22;1894;51.038;13.692;2023-11-21T09:08:31;8.90;99.90
3758;DHT22;1894;51.038;13.692;2023-11-21T09:10:58;8.80;99.90
3758;DHT22;1894;51.038;13.692;2023-11-21T09:13:26;8.80;99.90
3758;DHT22;1894;51.038;13.692;2023-11-21T09:15:53;8.70;99.90
3758;DHT22;1894;51.038;13.692;2023-11-21T09:18:20;8.60;99.90
3758;DHT22;1894;51.038;13.692;2023-11-21T09:20:48;8.60;99.90
3758;DHT22;1894;51.038;13.692;2023-11-21T09:23:15;8.50;99.90
3758;DHT22;1894;51.038;13.692;2023-11-21T09:25:42;8.50;99.90
3758;DHT22;1894;51.038;13.692;2023-11-21T09:28:13;8.60;99.90
3758;DHT22;1894;51.038;13.692;2023-11-21T09:30:40;8.50;99.90
3758;DHT22;1894;51.038;13.692;2023-11-21T09:33:07;8.50;99.90
3758;DHT22;1894;51.038;13.692;2023-11-21T09:35:38;8.60;99.90
3758;DHT22;1894;51.038;13.692;2023-11-21T09:38:05;8.60;99.90
3758;DHT22;1894;51.038;13.692;2023-11-21T09:40:37;8.70;99.90
3758;DHT22;1894;51.038;13.692;2023-11-21T09:43:12;8.90;99.90
3758;DHT22;1894;51.038;13.692;2023-11-21T09:45:53;9.00;99.90
3758;DHT22;1894;51.038;13.692;2023-11-21T09:48:24;9.00;99.90
3758;DHT22;1894;51.038;13.692;2023-11-21T09:50:54;8.80;99.90
3758;DHT22;1894;51.038;13.692;2023-11-21T09:53:22;8.60;99.90
3758;DHT22;1894;51.038;13.692;2023-11-21T09:55:52;8.70;99.90
3758;DHT22;1894;51.038;13.692;2023-11-21T09:58:21;8.70;99.90
3758;DHT22;1894;51.038;13.692;2023-11-21T10:00:57;8.60;99.90
3758;DHT22;1894;51.038;13.692;2023-11-21T10:03:26;8.60;99.90
3758;DHT22;1894;51.038;13.692;2023-11-21T10:05:56;8.40;99.90
3758;DHT22;1894;51.038;13.692;2023-11-21T10:08:28;8.30;99.90
3758;DHT22;1894;51.038;13.692;2023-11-21T10:11:17;8.10;99.90
3758;DHT22;1894;51.038;13.692;2023-11-21T10:13:45;8.00;99.90
3758;DHT22;1894;51.038;13.692;2023-11-21T10:16:16;7.90;99.90
3758;DHT22;1894;51.038;13.692;2023-11-21T10:18:52;7.90;99.90
3758;DHT22;1894;51.038;13.692;2023-11-21T10:21:39;7.90;99.90
3758;DHT22;1894;51.038;13.692;2023-11-21T10:24:07;7.90;99.90
3758;DHT22;1894;51.038;13.692;2023-11-21T10:26:34;7.80;99.90
3758;DHT22;1894;51.038;13.692;2023-11-21T10:29:16;7.80;99.90
3758;DHT22;1894;51.038;13.692;2023-11-21T10:31:45;7.60;99.90
3758;DHT22;1894;51.038;13.692;2023-11-21T10:34:17;7.50;99.90
3758;DHT22;1894;51.038;13.692;2023-11-21T10:36:46;7.50;99.90
3758;DHT22;1894;51.038;13.692;2023-11-21T10:39:17;7.50;99.90
3758;DHT22;1894;51.038;13.692;2023-11-21T10:41:46;7.50;99.90
3758;DHT22;1894;51.038;13.692;2023-11-21T10:44:15;7.50;99.90
3758;DHT22;1894;51.038;13.692;2023-11-21T10:46:49;7.60;99.90
3758;DHT22;1894;51.038;13.692;2023-11-21T10:49:19;7.50;99.90
3758;DHT22;1894;51.038;13.692;2023-11-21T10:51:47;7.50;99.90
3758;DHT22;1894;51.038;13.692;2023-11-21T10:54:22;7.50;99.90
3758;DHT22;1894;51.038;13.692;2023-11-21T10:56:57;7.40;99.90
3758;DHT22;1894;51.038;13.692;2023-11-21T10:59:29;7.50;99.90
3758;DHT22;1894;51.038;13.692;2023-11-21T11:01:58;7.40;99.90
3758;DHT22;1894;51.038;13.692;2023-11-21T11:04:28;7.50;99.90
3758;DHT22;1894;51.038;13.692;2023-11-21T11:06:58;7.50;99.90
3758;DHT22;1894;51.038;13.692;2023-11-21T11:09:32;7.50;99.90
3758;DHT22;1894;51.038;13.692;2023-11-21T11:12:04;7.50;99.90
3758;DHT22;1894;51.038;13.692;2023-11-21T11:14:33;7.50;99.90
3758;DHT22;1894;51.038;13.692;2023-11-21T11:17:01;7.50;99.90
3758;DHT22;1894;51.038;13.692;2023-11-21T11:19:29;7.50;99.90
3758;DHT22;1894;51.038;13.692;2023-11-21T11:27:54;7.30;99.90
3758;DHT22;1894;51.038;13.692;2023-11-21T11:36:42;7.20;99.90
3758;DHT22;1894;51.038;13.692;2023-11-21T11:39:48;7.30;99.90
3758;DHT22;1894;51.038;13.692;2023-11-21T11:42:19;6.90;99.90
3758;DHT22;1894;51.038;13.692;2023-11-21T11:44:48;6.80;99.90
3758;DHT22;1894;51.038;13.692;2023-11-21T11:47:22;6.70;99.90
3758;DHT22;1894;51.038;13.692;2023-11-21T11:50:11;6.70;99.90
3758;DHT22;1894;51.038;13.692;2023-11-21T11:52:53;6.60;99.90
3758;DHT22;1894;51.038;13.692;2023-11-21T11:55:23;6.60;99.90
3758;DHT22;1894;51.038;13.692;2023-11-21T11:57:53;6.60;99.90
3758;DHT22;1894;51.038;13.692;2023-11-21T12:02:58;6.60;99.90
3758;DHT22;1894;51.038;13.692;2023-11-21T12:05:30;6.50;99.90
3758;DHT22;1894;51.038;13.692;2023-11-21T12:08:11;6.70;99.90
3758;DHT22;1894;51.038;13.692;2023-11-21T12:10:39;6.40;99.90
3758;DHT22;1894;51.038;13.692;2023-11-21T12:13:10;6.30;99.90
3758;DHT22;1894;51.038;13.692;2023-11-21T12:15:40;6.40;99.90
3758;DHT22;1894;51.038;13.692;2023-11-21T12:18:09;6.50;99.90
3758;DHT22;1894;51.038;13.692;2023-11-21T12:20:36;6.40;99.90
3758;DHT22;1894;51.038;13.692;2023-11-21T12:23:07;6.20;99.90
3758;DHT22;1894;51.038;13.692;2023-11-21T12:25:36;6.00;99.90
3758;DHT22;1894;51.038;13.692;2023-11-21T12:28:04;6.10;99.90
3758;DHT22;1894;51.038;13.692;2023-11-21T12:30:34;6.00;99.90
3758;DHT22;1894;51.038;13.692;2023-11-21T12:33:03;6.00;99.90
3758;DHT22;1894;51.038;13.692;2023-11-21T12:35:33;6.10;99.90
3758;DHT22;1894;51.038;13.692;2023-11-21T12:38:02;6.30;99.90
3758;DHT22;1894;51.038;13.692;2023-11-21T12:40:31;6.40;99.90
3758;DHT22;1894;51.038;13.692;2023-11-21T12:43:00;6.40;99.90
3758;DHT22;1894;51.038;13.692;2023-11-21T12:45:32;6.40;99.90
3758;DHT22;1894;51.038;13.692;2023-11-21T12:48:04;6.40;99.90
3758;DHT22;1894;51.038;13.692;2023-11-21T12:50:37;6.60;99.90
3758;DHT22;1894;51.038;13.692;2023-11-21T12:53:12;6.60;99.90
3758;DHT22;1894;51.038;13.692;2023-11-21T12:55:40;6.50;99.90
3758;DHT22;1894;51.038;13.692;2023-11-21T12:58:11;6.40;99.90
3758;DHT22;1894;51.038;13.692;2023-11-21T13:00:45;6.40;99.90
3758;DHT22;1894;51.038;13.692;2023-11-21T13:03:15;6.50;99.90
3758;DHT22;1894;51.038;13.692;2023-11-21T13:05:48;6.50;99.90
3758;DHT22;1894;51.038;13.692;2023-11-21T13:08:22;6.50;99.90
3758;DHT22;1894;51.038;13.692;2023-11-21T13:10:56;6.50;99.90
3758;DHT22;1894;51.038;13.692;2023-11-21T13:13:27;6.40;99.90
3758;DHT22;1894;51.038;13.692;2023-11-21T13:15:59;6.40;99.90
3758;DHT22;1894;51.038;13.692;2023-11-21T13:18:35;6.50;99.90
3758;DHT22;1894;51.038;13.692;2023-11-21T13:21:07;6.50;99.90
3758;DHT22;1894;51.038;13.692;2023-11-21T13:23:46;6.40;99.90
3758;DHT22;1894;51.038;13.692;2023-11-21T13:26:15;6.40;99.90
3758;DHT22;1894;51.038;13.692;2023-11-21T13:28:43;6.40;99.90
3758;DHT22;1894;51.038;13.692;2023-11-21T13:31:14;6.40;99.90
3758;DHT22;1894;51.038;13.692;2023-11-21T13:33:55;6.30;99.90
3758;DHT22;1894;51.038;13.692;2023-11-21T13:36:24;6.30;99.90
3758;DHT22;1894;51.038;13.692;2023-11-21T13:38:52;6.30;99.90
3758;DHT22;1894;51.038;13.692;2023-11-21T13:41:20;6.20;99.90
3758;DHT22;1894;51.038;13.692;2023-11-21T13:43:55;6.30;99.90
3758;DHT22;1894;51.038;13.692;2023-11-21T13:46:30;6.30;99.90
3758;DHT22;1894;51.038;13.692;2023-11-21T13:49:04;6.40;99.90
3758;DHT22;1894;51.038;13.692;2023-11-21T13:51:36;6.40;99.90
3758;DHT22;1894;51.038;13.692;2023-11-21T13:54:12;6.30;99.90
3758;DHT22;1894;51.038;13.692;2023-11-21T13:56:41;6.10;99.90
3758;DHT22;1894;51.038;13.692;2023-11-21T13:59:12;6.30;99.90
3758;DHT22;1894;51.038;13.692;2023-11-21T14:01:52;6.20;99.90
3758;DHT22;1894;51.038;13.692;2023-11-21T14:04:24;6.20;99.90
3758;DHT22;1894;51.038;13.692;2023-11-21T14:06:58;6.10;99.90
3758;DHT22;1894;51.038;13.692;2023-11-21T14:09:28;6.10;99.90
3758;DHT22;1894;51.038;13.692;2023-11-21T14:12:11;6.10;99.90
3758;DHT22;1894;51.038;13.692;2023-11-21T14:14:42;6.00;99.90
3758;DHT22;1894;51.038;13.692;2023-11-21T14:17:11;6.10;99.90
3758;DHT22;1894;51.038;13.692;2023-11-21T14:19:38;6.10;99.90
3758;DHT22;1894;51.038;13.692;2023-11-21T14:22:10;6.00;99.90
3758;DHT22;1894;51.038;13.692;2023-11-21T14:24:37;5.90;99.90
3758;DHT22;1894;51.038;13.692;2023-11-21T14:27:10;5.80;99.90
3758;DHT22;1894;51.038;13.692;2023-11-21T14:29:37;5.70;99.90
3758;DHT22;1894;51.038;13.692;2023-11-21T14:32:07;5.50;99.90
3758;DHT22;1894;51.038;13.692;2023-11-21T14:34:35;5.50;99.90
3758;DHT22;1894;51.038;13.692;2023-11-21T14:37:03;5.50;99.90
3758;DHT22;1894;51.038;13.692;2023-11-21T14:39:30;5.40;99.90
3758;DHT22;1894;51.038;13.692;2023-11-21T14:42:01;5.40;99.90
3758;DHT22;1894;51.038;13.692;2023-11-21T14:44:29;5.20;99.90
3758;DHT22;1894;51.038;13.692;2023-11-21T14:47:02;5.30;99.90
3758;DHT22;1894;51.038;13.692;2023-11-21T14:49:34;5.30;99.90
3758;DHT22;1894;51.038;13.692;2023-11-21T14:52:17;5.30;99.90
3758;DHT22;1894;51.038;13.692;2023-11-21T14:55:01;5.40;99.90
3758;DHT22;1894;51.038;13.692;2023-11-21T14:57:47;5.40;99.90
3758;DHT22;1894;51.038;13.692;2023-11-21T15:00:18;5.30;99.90
3758;DHT22;1894;51.038;13.692;2023-11-21T15:03:03;5.20;99.90
3758;DHT22;1894;51.038;13.692;2023-11-21T15:05:31;5.30;99.90
3758;DHT22;1894;51.038;13.692;2023-11-21T15:07:58;5.40;99.90
3758;DHT22;1894;51.038;13.692;2023-11-21T15:10:35;5.30;99.90
3758;DHT22;1894;51.038;13.692;2023-11-21T15:13:13;5.30;99.90
3758;DHT22;1894;51.038;13.692;2023-11-21T15:15:42;5.20;99.90
3758;DHT22;1894;51.038;13.692;2023-11-21T15:18:09;5.30;99.90
3758;DHT22;1894;51.038;13.692;2023-11-21T15:20:42;5.30;99.90
3758;DHT22;1894;51.038;13.692;2023-11-21T15:23:11;5.30;99.90
3758;DHT22;1894;51.038;13.692;2023-11-21T15:25:39;5.20;99.90
3758;DHT22;1894;51.038;13.692;2023-11-21T15:28:06;5.00;99.90
3758;DHT22;1894;51.038;13.692;2023-11-21T15:30:34;5.00;99.90
3758;DHT22;1894;51.038;13.692;2023-11-21T15:33:01;5.00;99.90
3758;DHT22;1894;51.038;13.692;2023-11-21T15:35:30;5.10;99.90
3758;DHT22;1894;51.038;13.692;2023-11-21T15:37:59;5.00;99.90
3758;DHT22;1894;51.038;13.692;2023-11-21T15:40:27;5.00;99.90
3758;DHT22;1894;51.038;13.692;2023-11-21T15:42:54;5.00;99.90
3758;DHT22;1894;51.038;13.692;2023-11-21T15:45:21;5.10;99.90
3758;DHT22;1894;51.038;13.692;2023-11-21T15:47:51;5.10;99.90
3758;DHT22;1894;51.038;13.692;2023-11-21T15:50:20;5.10;99.90
3758;DHT22;1894;51.038;13.692;2023-11-21T15:52:48;5.20;99.90
3758;DHT22;1894;51.038;13.692;2023-11-21T15:55:27;5.20;99.90
3758;DHT22;1894;51.038;13.692;2023-11-21T15:57:54;5.10;99.90
3758;DHT22;1894;51.038;13.692;2023-11-21T16:00:21;5.10;99.90
3758;DHT22;1894;51.038;13.692;2023-11-21T16:02:50;5.10;99.90
3758;DHT22;1894;51.038;13.692;2023-11-21T16:05:20;5.10;99.90
3758;DHT22;1894;51.038;13.692;2023-11-21T16:07:47;5.10;99.90
3758;DHT22;1894;51.038;13.692;2023-11-21T16:10:15;5.00;99.90
3758;DHT22;1894;51.038;13.692;2023-11-21T16:12:43;5.00;99.90
3758;DHT22;1894;51.038;13.692;2023-11-21T16:15:10;4.90;99.90
3758;DHT22;1894;51.038;13.692;2023-11-21T16:17:38;4.80;99.90
3758;DHT22;1894;51.038;13.692;2023-11-21T16:20:06;4.80;99.90
3758;DHT22;1894;51.038;13.692;2023-11-21T16:22:38;4.70;99.90
3758;DHT22;1894;51.038;13.692;2023-11-21T16:25:06;4.70;99.90
3758;DHT22;1894;51.038;13.692;2023-11-21T16:27:38;4.90;99.90
3758;DHT22;1894;51.038;13.692;2023-11-21T16:30:07;4.90;99.90